Time;durP1;ratioP1;P1;durP2;ratioP2;P2;SDS_P1;SDS_P2;PMS_P1;PMS_P2;Temp;Humidity;BMP_temperature;BMP_pressure;BME280_temperature;BME280_humidity;BME280_pressure;Samples;Min_cycle;Max_cycle;Signal;HPM_P1;HPM_P2
2020/12/29 00:00:56;;;;;;;21.52;12.82;;;;;;;7.11;68.63;96295.50;5033086;28;20457;-83
2020/12/29 00:03:22;;;;;;;23.15;11.70;;;;;;;7.19;68.51;96309.09;5052624;28;20377;-83
2020/12/29 00:05:47;;;;;;;24.15;11.23;;;;;;;7.12;69.33;96290.06;5035068;28;20036;-83
2020/12/29 00:08:13;;;;;;;24.20;12.18;;;;;;;7.00;70.53;96291.75;5052153;28;20567;-83
2020/12/29 00:10:39;;;;;;;35.03;20.88;;;;;;;6.92;71.05;96309.19;5038628;28;20029;-83
2020/12/29 00:13:06;;;;;;;31.30;17.23;;;;;;;6.82;70.78;96314.25;5015811;28;20036;-83
2020/12/29 00:15:31;;;;;;;35.70;19.90;;;;;;;6.70;73.04;96331.00;5044767;28;20493;-83
2020/12/29 00:17:57;;;;;;;29.95;13.57;;;;;;;6.68;72.21;96314.31;5027777;28;20083;-83
2020/12/29 00:20:23;;;;;;;20.05;10.52;;;;;;;6.81;71.54;96322.31;5015613;28;20030;-83
2020/12/29 00:22:49;;;;;;;23.85;12.80;;;;;;;7.12;70.33;96311.31;5022146;28;20025;-83
2020/12/29 00:25:18;;;;;;;11.20;5.80;;;;;;;7.35;69.14;96313.25;5033986;28;20040;-84
2020/12/29 00:27:45;;;;;;;6.25;3.10;;;;;;;8.05;65.81;96310.97;5032718;28;20041;-83
2020/12/29 00:30:10;;;;;;;7.43;3.83;;;;;;;8.62;63.56;96306.72;5016694;28;20036;-83
2020/12/29 00:32:36;;;;;;;11.32;5.65;;;;;;;8.98;62.62;96319.13;5023278;28;20400;-84
2020/12/29 00:35:02;;;;;;;6.93;3.70;;;;;;;9.16;61.38;96317.75;5032284;28;20031;-83
2020/12/29 00:37:27;;;;;;;7.38;3.70;;;;;;;9.21;61.42;96310.25;5015925;28;20024;-84
2020/12/29 00:39:53;;;;;;;8.05;3.83;;;;;;;9.44;60.38;96320.97;5032591;28;20036;-84
2020/12/29 00:42:19;;;;;;;5.80;3.13;;;;;;;9.53;59.82;96301.59;5015412;28;20474;-83
2020/12/29 00:44:44;;;;;;;4.82;2.22;;;;;;;9.73;58.92;96306.19;5015903;28;20029;-83
2020/12/29 00:47:10;;;;;;;5.35;2.90;;;;;;;9.76;58.88;96297.94;5024195;28;20032;-83
2020/12/29 00:49:37;;;;;;;5.18;2.50;;;;;;;9.99;57.79;96293.47;5020340;28;20132;-83
2020/12/29 00:52:03;;;;;;;7.55;3.42;;;;;;;10.07;58.18;96294.56;5019717;28;20413;-84
2020/12/29 00:54:29;;;;;;;6.35;2.83;;;;;;;10.09;57.81;96292.59;5018871;28;20021;-83
2020/12/29 00:56:55;;;;;;;4.85;2.70;;;;;;;10.14;57.30;96295.81;5035864;28;20100;-84
2020/12/29 00:59:20;;;;;;;3.92;2.40;;;;;;;10.27;57.13;96301.84;5024748;28;20028;-83
2020/12/29 01:01:54;;;;;;;4.72;2.35;;;;;;;10.36;57.60;96296.72;5024223;28;20029;-84
2020/12/29 01:04:20;;;;;;;3.70;2.28;;;;;;;10.40;56.93;96287.50;5015340;28;20036;-83
2020/12/29 01:06:45;;;;;;;7.00;2.15;;;;;;;10.49;56.28;96284.06;5021452;28;20032;-83
2020/12/29 01:09:11;;;;;;;5.22;2.60;;;;;;;10.41;56.78;96282.00;5034343;28;20381;-83
2020/12/29 01:11:37;;;;;;;4.30;2.38;;;;;;;10.48;56.38;96272.53;5047640;28;20032;-83
2020/12/29 01:14:02;;;;;;;2.97;2.03;;;;;;;10.50;55.87;96273.25;5030632;28;20408;-83
2020/12/29 01:16:28;;;;;;;4.18;2.08;;;;;;;10.47;56.67;96261.94;5023920;28;20037;-83
2020/12/29 01:18:54;;;;;;;3.15;2.10;;;;;;;10.36;56.42;96262.84;5037982;28;20407;-83
2020/12/29 01:21:19;;;;;;;2.50;1.70;;;;;;;10.22;55.92;96239.91;5034265;28;20031;-83
2020/12/29 01:23:45;;;;;;;3.47;1.98;;;;;;;10.19;55.73;96239.31;5029628;28;20124;-83
2020/12/29 01:26:10;;;;;;;2.45;1.73;;;;;;;10.30;55.32;96223.25;5039882;28;20460;-84
2020/12/29 01:28:37;;;;;;;2.95;2.00;;;;;;;10.34;55.44;96201.47;5042606;28;20029;-83
2020/12/29 01:31:03;;;;;;;4.18;2.13;;;;;;;10.32;55.81;96208.78;5027553;28;20033;-84
2020/12/29 01:33:28;;;;;;;11.27;3.92;;;;;;;10.27;56.27;96189.59;5033045;28;20400;-83
2020/12/29 01:35:54;;;;;;;15.82;5.28;;;;;;;10.14;57.11;96183.59;5028584;28;20041;-83
2020/12/29 01:38:19;;;;;;;16.13;6.10;;;;;;;10.05;57.65;96194.13;5030525;28;20036;-83
2020/12/29 01:40:46;;;;;;;13.65;6.60;;;;;;;9.89;58.39;96205.22;5018632;28;20036;-83
2020/12/29 01:43:12;;;;;;;14.90;6.68;;;;;;;9.87;57.99;96231.22;5026247;28;20426;-83
2020/12/29 01:45:38;;;;;;;11.95;5.20;;;;;;;9.82;58.07;96222.69;5030475;28;20029;-84
2020/12/29 01:48:04;;;;;;;8.55;4.07;;;;;;;9.82;58.13;96228.03;5014331;28;20025;-82
2020/12/29 01:50:29;;;;;;;6.47;3.13;;;;;;;9.95;57.50;96244.78;5024414;28;20049;-83
2020/12/29 01:53:00;;;;;;;2.97;1.65;;;;;;;10.17;55.94;96230.56;5025603;28;20040;-83
2020/12/29 01:55:26;;;;;;;6.93;2.50;;;;;;;10.18;56.35;96243.78;5033513;28;20036;-84
2020/12/29 01:57:52;;;;;;;3.88;2.20;;;;;;;10.11;56.67;96252.41;5021300;28;20033;-84
2020/12/29 02:00:18;;;;;;;4.25;2.20;;;;;;;10.03;57.17;96282.41;5022203;28;20033;-84
2020/12/29 02:02:44;;;;;;;2.65;1.73;;;;;;;10.13;55.57;96287.84;5013872;28;20056;-84
2020/12/29 02:05:10;;;;;;;1.73;1.17;;;;;;;10.74;54.03;96283.72;5031058;28;20574;-82
2020/12/29 02:07:36;;;;;;;1.42;1.30;;;;;;;10.70;54.13;96272.47;5015092;28;20029;-84
2020/12/29 02:10:03;;;;;;;2.25;1.60;;;;;;;10.65;55.11;96274.66;5020841;28;20052;-84
2020/12/29 02:12:33;;;;;;;2.53;1.42;;;;;;;10.63;55.21;96286.44;5034030;28;20032;-83
2020/12/29 02:15:00;;;;;;;3.08;1.52;;;;;;;10.67;54.73;96287.91;5034340;28;20029;-85
2020/12/29 02:17:26;;;;;;;1.23;1.13;;;;;;;10.74;54.85;96294.44;5032644;28;20017;-84
2020/12/29 02:19:52;;;;;;;3.92;1.60;;;;;;;10.67;55.23;96294.13;5014532;28;20161;-84
2020/12/29 02:22:22;;;;;;;2.30;1.50;;;;;;;10.55;55.66;96284.41;5046604;28;20020;-83
2020/12/29 02:24:49;;;;;;;2.95;1.40;;;;;;;10.64;55.71;96272.13;5049843;28;20063;-84
2020/12/29 02:27:15;;;;;;;2.90;1.80;;;;;;;10.74;55.92;96283.72;5034084;28;20099;-83
2020/12/29 02:29:41;;;;;;;1.70;1.20;;;;;;;10.79;55.16;96277.06;5035617;28;20537;-85
2020/12/29 02:32:06;;;;;;;7.30;3.00;;;;;;;10.71;55.46;96271.47;5018565;28;20029;-84
2020/12/29 02:34:36;;;;;;;8.10;2.38;;;;;;;10.58;56.20;96269.97;5028213;28;20116;-84
2020/12/29 02:37:05;;;;;;;4.10;2.25;;;;;;;10.38;57.03;96258.22;5037762;28;20483;-84
2020/12/29 02:39:32;;;;;;;2.03;1.45;;;;;;;10.39;57.34;96259.06;5037115;28;20025;-84
2020/12/29 02:41:58;;;;;;;3.33;1.60;;;;;;;10.48;57.13;96263.66;5054530;28;20112;-83
2020/12/29 02:44:23;;;;;;;5.43;1.17;;;;;;;10.71;56.27;96258.09;5021285;28;20536;-83
2020/12/29 02:46:49;;;;;;;5.85;1.98;;;;;;;10.77;56.34;96254.06;5017828;28;20499;-84
2020/12/29 02:49:15;;;;;;;3.58;1.20;;;;;;;10.72;56.37;96258.94;5032504;28;20029;-83
2020/12/29 02:51:42;;;;;;;3.80;2.10;;;;;;;10.63;56.70;96249.88;5034924;28;20112;-84
2020/12/29 02:54:09;;;;;;;3.97;1.42;;;;;;;10.74;56.64;96255.16;5017573;28;20032;-84
2020/12/29 02:56:35;;;;;;;3.58;1.20;;;;;;;10.69;56.71;96260.06;5035439;28;20025;-83
2020/12/29 02:59:00;;;;;;;3.25;1.58;;;;;;;10.66;56.65;96246.94;5032623;28;20032;-84
2020/12/29 03:01:27;;;;;;;3.40;1.30;;;;;;;10.71;56.97;96275.97;5017165;28;20037;-83
2020/12/29 03:03:55;;;;;;;3.33;1.23;;;;;;;10.69;55.98;96288.63;5029737;28;20032;-83
2020/12/29 03:06:20;;;;;;;2.05;1.33;;;;;;;10.71;56.16;96281.31;5036801;28;20492;-83
2020/12/29 03:08:46;;;;;;;4.43;1.30;;;;;;;10.78;54.39;96306.59;5034413;28;20035;-83
2020/12/29 03:11:12;;;;;;;2.15;1.40;;;;;;;10.99;54.79;96306.63;5031929;28;20021;-85
2020/12/29 03:13:37;;;;;;;3.00;1.45;;;;;;;11.00;54.54;96290.44;5036547;28;20036;-81
2020/12/29 03:16:03;;;;;;;5.22;1.77;;;;;;;10.97;55.18;96290.72;5024812;28;20439;-83
2020/12/29 03:18:28;;;;;;;3.78;1.48;;;;;;;10.95;54.62;96276.59;5017587;28;20021;-82
2020/12/29 03:20:54;;;;;;;4.22;1.42;;;;;;;11.12;54.32;96283.22;5033983;28;20105;-82
2020/12/29 03:23:20;;;;;;;1.23;0.82;;;;;;;11.28;52.97;96289.81;5024431;28;20047;-82
2020/12/29 03:25:45;;;;;;;1.75;1.35;;;;;;;11.42;53.25;96294.00;5034786;28;20033;-83
2020/12/29 03:28:11;;;;;;;2.22;1.50;;;;;;;11.38;53.56;96298.75;5024929;28;20014;-83
2020/12/29 03:30:36;;;;;;;2.78;1.65;;;;;;;11.26;53.81;96301.63;5016152;28;20022;-83
2020/12/29 03:33:02;;;;;;;3.42;1.25;;;;;;;11.16;53.59;96296.22;5016460;28;20100;-83
2020/12/29 03:35:28;;;;;;;1.60;1.33;;;;;;;11.09;54.62;96305.72;5032280;28;20463;-84
2020/12/29 03:37:53;;;;;;;3.70;1.55;;;;;;;11.09;53.99;96320.94;5028624;28;20052;-85
2020/12/29 03:40:19;;;;;;;1.48;1.17;;;;;;;11.12;53.98;96326.88;5035156;28;20017;-84
2020/12/29 03:42:45;;;;;;;2.38;1.50;;;;;;;11.18;53.98;96325.50;5036180;28;20029;-84
2020/12/29 03:45:10;;;;;;;3.47;2.13;;;;;;;11.20;54.00;96308.34;5028352;28;20094;-83
2020/12/29 03:47:36;;;;;;;1.67;1.00;;;;;;;11.20;53.49;96324.41;5036475;28;20040;-83
2020/12/29 03:50:02;;;;;;;5.07;2.28;;;;;;;11.26;53.77;96307.81;5053294;28;20568;-83
2020/12/29 03:52:27;;;;;;;5.15;2.63;;;;;;;11.12;54.34;96318.84;5036460;28;20086;-83
2020/12/29 03:54:53;;;;;;;7.20;1.83;;;;;;;11.22;53.38;96325.16;5034632;28;20119;-83
2020/12/29 03:57:18;;;;;;;4.75;2.38;;;;;;;11.33;52.89;96317.03;5023795;28;20377;-83
2020/12/29 03:59:44;;;;;;;1.98;1.30;;;;;;;11.39;53.05;96319.19;5036369;28;20037;-83
2020/12/29 04:02:10;;;;;;;10.95;4.53;;;;;;;11.32;53.30;96318.00;5031586;28;20086;-83
2020/12/29 04:04:39;;;;;;;1.90;1.30;;;;;;;11.27;52.93;96317.56;5016645;28;20120;-82
2020/12/29 04:07:05;;;;;;;4.88;3.22;;;;;;;11.19;53.35;96327.22;5015589;28;20065;-83
2020/12/29 04:09:31;;;;;;;2.53;1.63;;;;;;;11.19;52.67;96301.31;5031679;28;20060;-83
2020/12/29 04:11:57;;;;;;;2.90;1.50;;;;;;;11.41;52.12;96311.88;5019018;28;20036;-83
2020/12/29 04:14:23;;;;;;;3.25;1.58;;;;;;;11.41;52.39;96313.72;5021310;28;20033;-83
2020/12/29 04:16:49;;;;;;;5.70;3.22;;;;;;;11.43;52.00;96301.06;5015447;28;20511;-83
2020/12/29 04:19:15;;;;;;;4.75;1.63;;;;;;;11.54;50.67;96286.72;5016338;28;20033;-84
2020/12/29 04:21:41;;;;;;;7.15;2.45;;;;;;;11.54;51.46;96273.34;5016120;28;20080;-83
2020/12/29 04:24:06;;;;;;;3.03;1.10;;;;;;;11.55;50.58;96269.69;5028387;28;20511;-83
2020/12/29 04:26:33;;;;;;;2.75;1.30;;;;;;;11.60;50.79;96276.34;5044765;28;20029;-84
2020/12/29 04:28:59;;;;;;;2.67;1.00;;;;;;;11.62;50.39;96270.88;5026271;28;20064;-84
2020/12/29 04:31:25;;;;;;;4.47;1.00;;;;;;;11.73;49.90;96284.19;5027327;28;20563;-83
2020/12/29 04:33:51;;;;;;;3.00;1.80;;;;;;;12.01;49.36;96277.28;5017481;28;20033;-83
2020/12/29 04:36:16;;;;;;;1.90;1.23;;;;;;;12.06;49.14;96267.84;5032479;28;20056;-83
2020/12/29 04:38:42;;;;;;;6.97;1.10;;;;;;;12.02;49.34;96263.75;5031814;28;20040;-83
2020/12/29 04:41:08;;;;;;;1.92;1.25;;;;;;;12.11;48.60;96271.00;5035581;28;20029;-82
2020/12/29 04:43:35;;;;;;;4.10;2.22;;;;;;;12.13;48.26;96247.56;5035484;28;20448;-82
2020/12/29 04:46:03;;;;;;;3.38;1.85;;;;;;;12.16;48.16;96249.97;5035106;28;20115;-83
2020/12/29 04:48:29;;;;;;;4.88;1.00;;;;;;;12.37;46.86;96250.72;5034839;28;20021;-83
2020/12/29 04:51:03;;;;;;;2.03;1.10;;;;;;;12.43;46.49;96242.13;5034056;28;20146;-84
2020/12/29 04:53:33;;;;;;;3.47;2.03;;;;;;;12.57;45.53;96243.56;5027350;28;20020;-83
2020/12/29 04:56:09;;;;;;;4.35;1.70;;;;;;;12.61;46.17;96260.25;5035095;28;20089;-82
2020/12/29 04:58:35;;;;;;;1.92;1.00;;;;;;;12.68;45.39;96259.53;5036359;28;20047;-83
2020/12/29 05:01:06;;;;;;;2.63;1.08;;;;;;;12.60;46.48;96254.03;5035773;28;20029;-82
2020/12/29 05:03:43;;;;;;;3.47;1.30;;;;;;;12.43;46.68;96250.19;5046288;28;20052;-82
2020/12/29 05:06:10;;;;;;;2.25;1.00;;;;;;;12.35;46.85;96239.31;5015516;28;20025;-82
2020/12/29 05:08:35;;;;;;;1.33;0.98;;;;;;;12.39;47.02;96251.47;5025284;28;20095;-82
2020/12/29 05:11:04;;;;;;;2.70;1.20;;;;;;;12.41;47.00;96270.94;5024399;28;20108;-82
2020/12/29 05:13:29;;;;;;;1.33;0.73;;;;;;;12.46;46.49;96263.31;5016011;28;20025;-83
2020/12/29 05:15:55;;;;;;;2.17;1.15;;;;;;;12.42;46.42;96267.28;5023316;28;20028;-83
2020/12/29 05:18:21;;;;;;;1.33;0.90;;;;;;;12.34;47.03;96268.91;5028435;28;20025;-84
2020/12/29 05:20:48;;;;;;;4.00;0.80;;;;;;;12.28;46.87;96256.06;5035022;28;20039;-83
2020/12/29 05:23:15;;;;;;;6.38;1.70;;;;;;;12.49;45.49;96303.25;5022802;28;20014;-82
2020/12/29 05:25:45;;;;;;;3.90;1.25;;;;;;;12.65;45.46;96285.78;5023479;28;20036;-83
2020/12/29 05:28:11;;;;;;;3.00;1.23;;;;;;;12.60;46.03;96290.72;5032620;28;20025;-83
2020/12/29 05:30:38;;;;;;;0.93;0.77;;;;;;;12.69;45.62;96303.31;5049073;28;20087;-83
2020/12/29 05:33:10;;;;;;;1.65;0.90;;;;;;;12.65;45.39;96305.41;5035999;28;20451;-83
2020/12/29 05:35:37;;;;;;;2.92;1.08;;;;;;;12.61;45.66;96317.44;5037830;28;20033;-83
2020/12/29 05:38:03;;;;;;;2.38;1.00;;;;;;;12.64;45.80;96330.56;5042321;28;20028;-83
2020/12/29 05:40:32;;;;;;;32.67;13.23;;;;;;;12.58;45.87;96309.63;5016707;28;20021;-82
2020/12/29 05:43:00;;;;;;;9.38;4.57;;;;;;;12.70;45.46;96339.91;5030972;28;20025;-82
2020/12/29 05:45:34;;;;;;;1.25;1.00;;;;;;;12.82;44.61;96306.59;5015663;28;20021;-82
2020/12/29 05:48:01;;;;;;;9.15;2.35;;;;;;;12.80;45.18;96327.31;5030947;28;20029;-83
2020/12/29 05:50:28;;;;;;;5.35;1.67;;;;;;;12.90;44.78;96326.38;5014895;28;20072;-83
2020/12/29 05:53:01;;;;;;;3.25;1.50;;;;;;;12.81;44.88;96335.25;5015184;28;20116;-82
2020/12/29 05:55:27;;;;;;;5.20;2.42;;;;;;;12.76;45.27;96336.66;5035030;28;20063;-82
2020/12/29 05:58:10;;;;;;;2.70;1.08;;;;;;;12.77;44.84;96303.47;5034489;28;20021;-82
2020/12/29 06:00:40;;;;;;;4.00;1.10;;;;;;;12.75;45.02;96310.81;5040480;28;20420;-83
2020/12/29 06:03:08;;;;;;;5.82;2.20;;;;;;;12.62;46.06;96326.31;5024705;28;20089;-83
2020/12/29 06:05:36;;;;;;;3.83;1.73;;;;;;;12.75;45.15;96345.69;5028538;28;20024;-84
2020/12/29 06:08:07;;;;;;;7.22;2.83;;;;;;;12.80;45.17;96327.31;5024338;28;20481;-83
2020/12/29 06:10:58;;;;;;;4.05;1.83;;;;;;;12.78;45.04;96345.41;5014143;28;20547;-83
2020/12/29 06:13:27;;;;;;;2.85;1.65;;;;;;;12.77;45.41;96346.38;5027236;28;20041;-82
2020/12/29 06:15:57;;;;;;;1.77;1.27;;;;;;;12.67;45.89;96356.28;5026222;28;20067;-83
2020/12/29 06:18:33;;;;;;;4.80;2.30;;;;;;;12.59;46.24;96364.13;5006413;28;20022;-83
2020/12/29 06:21:03;;;;;;;2.22;0.85;;;;;;;12.54;45.92;96361.88;5014922;28;20127;-82
2020/12/29 06:23:29;;;;;;;15.15;4.57;;;;;;;12.52;46.33;96365.69;5019174;28;20021;-84
2020/12/29 06:25:58;;;;;;;10.27;5.63;;;;;;;12.35;47.09;96381.41;5051971;28;20400;-83
2020/12/29 06:28:28;;;;;;;15.27;6.72;;;;;;;12.35;47.34;96370.69;5047803;28;20105;-85
2020/12/29 06:31:07;;;;;;;5.35;3.47;;;;;;;12.37;46.66;96374.06;5030183;28;20025;-84
2020/12/29 06:33:33;;;;;;;10.77;5.38;;;;;;;12.46;46.67;96397.41;5025623;28;20021;-82
2020/12/29 06:36:00;;;;;;;4.18;1.40;;;;;;;12.59;45.88;96385.59;5017352;28;20032;-82
2020/12/29 06:38:28;;;;;;;7.97;5.00;;;;;;;12.57;46.74;96382.19;5014180;28;20095;-82
2020/12/29 06:40:55;;;;;;;8.00;2.65;;;;;;;12.55;46.79;96417.19;5022160;28;20090;-83
2020/12/29 06:43:20;;;;;;;3.70;1.42;;;;;;;12.59;46.41;96407.91;5033908;28;20029;-84
2020/12/29 06:45:46;;;;;;;5.50;1.50;;;;;;;12.63;46.61;96427.25;5027384;28;20147;-85
2020/12/29 06:48:16;;;;;;;2.22;1.20;;;;;;;12.70;46.06;96429.28;5031521;28;20116;-86
2020/12/29 06:50:42;;;;;;;2.63;1.40;;;;;;;12.98;45.42;96441.09;5028033;28;20119;-83
2020/12/29 06:53:08;;;;;;;6.95;2.90;;;;;;;13.53;44.85;96435.13;5013135;28;20037;-85
2020/12/29 06:55:56;;;;;;;2.33;1.00;;;;;;;14.82;41.33;96454.38;5014770;28;20120;-86
2020/12/29 06:58:33;;;;;;;1.20;0.80;;;;;;;16.07;39.05;96467.91;5018855;28;20787;-81
2020/12/29 07:01:20;;;;;;;8.32;2.28;;;;;;;17.35;36.92;96475.19;5034606;28;20018;-81
2020/12/29 07:03:47;;;;;;;7.70;2.88;;;;;;;17.79;35.71;96475.88;5045795;28;20024;-84
2020/12/29 07:06:13;;;;;;;5.82;2.70;;;;;;;17.49;36.51;96482.69;5050102;28;20056;-82
2020/12/29 07:08:39;;;;;;;5.55;2.05;;;;;;;18.07;38.58;96493.50;5033677;28;20029;-82
2020/12/29 07:11:22;;;;;;;3.40;1.52;;;;;;;18.90;34.73;96508.59;5025314;28;20120;-80
2020/12/29 07:13:51;;;;;;;5.80;2.40;;;;;;;19.87;32.45;96497.44;5042799;28;20508;-81
2020/12/29 07:16:25;;;;;;;6.15;2.15;;;;;;;20.52;31.94;96508.72;5053701;28;20466;-82
2020/12/29 07:18:51;;;;;;;5.40;1.85;;;;;;;19.65;31.82;96514.53;5048023;28;20044;-83
2020/12/29 07:21:27;;;;;;;5.10;0.98;;;;;;;19.67;31.25;96515.19;5026967;28;20428;-82
2020/12/29 07:23:54;;;;;;;8.02;2.60;;;;;;;19.67;32.08;96519.75;5038193;28;20033;-81
2020/12/29 07:26:23;;;;;;;19.15;7.45;;;;;;;19.79;31.70;96548.19;5053444;28;20036;-80
2020/12/29 07:28:56;;;;;;;11.85;7.28;;;;;;;20.44;30.82;96543.28;5031084;28;20404;-81
2020/12/29 07:31:23;;;;;;;8.57;4.88;;;;;;;21.62;28.61;96548.00;5037117;28;20044;-82
2020/12/29 07:33:56;;;;;;;18.77;9.20;;;;;;;21.39;29.23;96555.38;5036420;28;20029;-81
2020/12/29 07:36:22;;;;;;;5.40;3.50;;;;;;;22.13;28.79;96560.63;5045478;28;20063;-82
2020/12/29 07:38:53;;;;;;;1.23;1.10;;;;;;;22.07;27.43;96547.78;5038273;28;20024;-82
2020/12/29 07:41:19;;;;;;;2.25;1.20;;;;;;;20.86;29.05;96556.34;5029215;28;20459;-82
2020/12/29 07:43:48;;;;;;;17.38;6.22;;;;;;;21.07;29.62;96565.50;5037193;28;20499;-82
2020/12/29 07:46:14;;;;;;;1.58;0.70;;;;;;;20.83;29.71;96559.44;5053300;28;20511;-85
2020/12/29 07:48:40;;;;;;;3.83;2.10;;;;;;;21.14;29.16;96581.97;5046432;28;20025;-82
2020/12/29 07:51:07;;;;;;;1.30;0.90;;;;;;;21.53;27.85;96558.09;5046572;28;20052;-83
2020/12/29 07:53:33;;;;;;;9.88;1.52;;;;;;;20.92;28.43;96575.50;5045640;28;20051;-83
2020/12/29 07:55:59;;;;;;;2.28;1.25;;;;;;;20.96;28.85;96587.72;5029964;28;20033;-82
2020/12/29 07:58:25;;;;;;;4.40;1.30;;;;;;;21.74;27.72;96592.75;5034578;28;20098;-84
2020/12/29 08:00:51;;;;;;;6.10;1.25;;;;;;;22.63;26.70;96594.34;5037115;28;20056;-83
2020/12/29 08:03:18;;;;;;;4.47;2.55;;;;;;;21.91;28.22;96607.91;5053188;28;20033;-83
2020/12/29 08:05:44;;;;;;;4.63;2.88;;;;;;;22.29;28.20;96602.31;5037417;28;20099;-83
2020/12/29 08:08:11;;;;;;;4.22;1.02;;;;;;;22.09;27.27;96602.06;5020219;28;20026;-84
2020/12/29 08:10:38;;;;;;;2.67;1.80;;;;;;;21.42;28.24;96609.44;5033692;28;20095;-83
2020/12/29 08:13:09;;;;;;;2.53;1.15;;;;;;;20.77;28.70;96612.66;5018898;28;20033;-82
2020/12/29 08:15:42;;;;;;;2.78;1.45;;;;;;;21.97;27.66;96620.75;5018988;28;20029;-86
2020/12/29 08:18:12;;;;;;;4.55;2.20;;;;;;;22.94;26.74;96619.47;5028435;28;20127;-83
2020/12/29 08:20:45;;;;;;;4.57;1.40;;;;;;;22.13;27.86;96620.56;5039486;28;20025;-83
2020/12/29 08:23:12;;;;;;;1.88;0.85;;;;;;;21.69;27.42;96618.88;5054432;28;20090;-83
2020/12/29 08:25:38;;;;;;;1.85;0.70;;;;;;;20.68;28.78;96627.34;5040762;28;20044;-83
2020/12/29 08:28:04;;;;;;;8.13;2.95;;;;;;;21.19;29.79;96624.97;5032640;28;20030;-84
2020/12/29 08:30:31;;;;;;;6.95;3.10;;;;;;;21.18;28.85;96615.94;5042529;28;20480;-83
2020/12/29 08:32:58;;;;;;;4.32;2.28;;;;;;;20.19;30.30;96628.59;5052744;28;20021;-85
2020/12/29 08:35:23;;;;;;;5.00;2.42;;;;;;;20.94;29.51;96622.41;5028056;28;20480;-85
2020/12/29 08:38:16;;;;;;;2.30;1.58;;;;;;;21.28;28.93;96630.16;5036572;28;20044;-83
2020/12/29 08:41:13;;;;;;;5.32;2.55;;;;;;;21.60;28.25;96623.53;5040668;28;20049;-84
2020/12/29 08:43:43;;;;;;;5.00;2.60;;;;;;;22.34;27.55;96611.59;5053704;28;20076;-84
2020/12/29 08:46:11;;;;;;;2.63;1.20;;;;;;;21.51;28.39;96622.78;5052356;28;20396;-84
2020/12/29 08:48:39;;;;;;;2.28;1.35;;;;;;;21.70;27.58;96618.66;5044188;28;20040;-84
2020/12/29 08:51:44;;;;;;;3.85;1.42;;;;;;;21.93;28.52;96624.88;5027963;28;20053;-85
2020/12/29 08:54:18;;;;;;;1.42;0.98;;;;;;;22.38;26.77;96631.16;4968424;28;20041;-85
2020/12/29 08:56:44;;;;;;;6.40;2.53;;;;;;;22.15;27.94;96634.00;4991774;28;20098;-83
2020/12/29 08:59:19;;;;;;;5.18;2.25;;;;;;;22.08;27.50;96641.25;4993867;28;20529;-82
2020/12/29 09:01:46;;;;;;;2.67;1.75;;;;;;;21.66;28.04;96639.13;5031873;28;20025;-82
2020/12/29 09:04:31;;;;;;;6.50;3.20;;;;;;;21.85;28.19;96627.69;5033038;28;20026;-84
2020/12/29 09:06:59;;;;;;;5.78;3.10;;;;;;;22.13;27.68;96628.75;5021771;28;20496;-83
2020/12/29 09:09:26;;;;;;;6.50;3.50;;;;;;;22.77;26.61;96636.25;5052768;28;20032;-86
2020/12/29 09:12:11;;;;;;;4.93;2.72;;;;;;;23.71;25.82;96644.97;5032086;28;20091;-84
2020/12/29 09:14:38;;;;;;;2.47;1.20;;;;;;;22.33;26.64;96637.19;5031682;28;20092;-84
2020/12/29 09:17:08;;;;;;;3.22;1.10;;;;;;;21.70;28.17;96635.00;5021111;28;20031;-84
2020/12/29 09:19:34;;;;;;;12.00;3.30;;;;;;;22.18;27.92;96638.25;5016363;28;20033;-84
2020/12/29 09:22:12;;;;;;;14.57;8.55;;;;;;;22.12;27.77;96640.66;5031359;28;20040;-84
2020/12/29 09:24:53;;;;;;;3.85;2.30;;;;;;;22.99;26.71;96644.25;5033233;28;20210;-84
2020/12/29 09:27:29;;;;;;;5.00;3.05;;;;;;;23.89;25.45;96641.72;5034917;28;20114;-84
2020/12/29 09:29:56;;;;;;;8.52;6.18;;;;;;;24.46;25.27;96648.78;5051663;28;20496;-84
2020/12/29 09:32:23;;;;;;;2.80;1.50;;;;;;;24.52;24.50;96646.06;5052574;28;20025;-84
2020/12/29 09:34:49;;;;;;;5.63;1.98;;;;;;;24.41;24.54;96643.09;5035051;28;20025;-83
2020/12/29 09:37:16;;;;;;;14.02;5.80;;;;;;;24.75;24.79;96653.97;5034913;28;20017;-84
2020/12/29 09:39:41;;;;;;;4.10;2.42;;;;;;;25.16;24.53;96649.25;5049385;28;20021;-85
2020/12/29 09:42:07;;;;;;;5.32;3.92;;;;;;;25.23;24.12;96647.38;5034698;28;20033;-85
2020/12/29 09:44:32;;;;;;;2.75;1.58;;;;;;;25.95;23.03;96632.03;5025919;28;20148;-82
2020/12/29 09:47:00;;;;;;;7.22;5.03;;;;;;;26.51;23.07;96640.56;5028644;28;20033;-85
2020/12/29 09:49:26;;;;;;;6.82;4.00;;;;;;;26.13;22.79;96630.28;5052715;28;20126;-84
2020/12/29 09:51:55;;;;;;;5.38;2.30;;;;;;;24.60;23.86;96634.13;5024015;28;20025;-84
2020/12/29 09:54:21;;;;;;;9.60;1.80;;;;;;;25.00;23.98;96641.44;5041919;28;20052;-85
2020/12/29 09:56:46;;;;;;;6.50;1.73;;;;;;;26.22;22.56;96642.75;5015358;28;20025;-84
2020/12/29 09:59:12;;;;;;;4.85;2.38;;;;;;;26.03;22.60;96638.13;5037384;28;20025;-82
2020/12/29 10:01:38;;;;;;;6.75;2.00;;;;;;;25.57;22.88;96629.94;5049643;28;20028;-85
2020/12/29 10:04:03;;;;;;;3.53;2.22;;;;;;;25.18;23.39;96633.47;5015680;28;20120;-84
2020/12/29 10:06:30;;;;;;;3.38;1.95;;;;;;;24.90;23.96;96646.47;5023586;28;20389;-84
2020/12/29 10:08:56;;;;;;;8.55;4.97;;;;;;;24.78;24.17;96631.66;5023234;28;20029;-84
2020/12/29 10:11:21;;;;;;;6.95;2.25;;;;;;;25.78;23.02;96634.34;5038276;28;20025;-83
2020/12/29 10:13:47;;;;;;;6.05;2.40;;;;;;;24.54;24.07;96627.59;5034805;28;20502;-85
2020/12/29 10:16:13;;;;;;;6.60;3.15;;;;;;;25.32;23.29;96634.31;5036870;28;20022;-84
2020/12/29 10:18:38;;;;;;;4.80;3.05;;;;;;;25.69;23.44;96635.63;5022728;28;20025;-84
2020/12/29 10:21:04;;;;;;;3.30;1.60;;;;;;;25.48;22.69;96639.38;5014960;28;20060;-84
2020/12/29 10:23:30;;;;;;;5.90;1.65;;;;;;;25.57;22.83;96621.72;5030800;28;20021;-84
2020/12/29 10:25:55;;;;;;;6.35;3.25;;;;;;;25.79;22.53;96625.94;5026392;28;20443;-84
2020/12/29 10:28:21;;;;;;;4.55;1.80;;;;;;;25.68;22.63;96623.00;5020162;28;20381;-84
2020/12/29 10:30:48;;;;;;;5.63;2.63;;;;;;;25.73;22.80;96631.41;5023777;28;20026;-85
2020/12/29 10:33:14;;;;;;;5.05;3.63;;;;;;;25.25;22.96;96628.00;5028961;28;20036;-84
2020/12/29 10:35:39;;;;;;;4.57;1.88;;;;;;;25.34;22.88;96632.22;5023065;28;20033;-86
2020/12/29 10:38:05;;;;;;;6.38;1.20;;;;;;;24.70;23.73;96627.19;5031694;28;20025;-85
2020/12/29 10:40:30;;;;;;;3.85;2.00;;;;;;;25.39;22.90;96629.69;5030914;28;20518;-85
2020/12/29 10:42:56;;;;;;;2.05;1.40;;;;;;;24.93;23.13;96621.41;5034618;28;20098;-86
2020/12/29 10:45:22;;;;;;;1.13;0.85;;;;;;;24.70;23.47;96623.66;5035724;28;20400;-85
2020/12/29 10:47:47;;;;;;;4.18;1.40;;;;;;;24.21;23.93;96611.00;5041389;28;20040;-85
2020/12/29 10:50:13;;;;;;;5.75;2.40;;;;;;;23.95;24.69;96619.06;5039880;28;20064;-84
2020/12/29 10:52:38;;;;;;;5.93;1.88;;;;;;;23.80;25.05;96639.34;5022208;28;20065;-85
2020/12/29 10:55:04;;;;;;;3.97;1.42;;;;;;;23.61;25.10;96616.28;5043032;28;20033;-85
2020/12/29 10:57:31;;;;;;;4.53;0.95;;;;;;;23.59;24.98;96637.50;5044165;28;20104;-85
2020/12/29 10:59:57;;;;;;;10.18;2.67;;;;;;;23.64;24.84;96622.19;5053703;28;20458;-85
2020/12/29 11:02:22;;;;;;;4.65;1.10;;;;;;;23.46;25.02;96621.84;5037356;28;20077;-85
2020/12/29 11:04:48;;;;;;;3.50;1.80;;;;;;;23.34;25.47;96628.00;5038005;28;20033;-85
2020/12/29 11:07:13;;;;;;;4.00;2.20;;;;;;;22.39;26.12;96630.13;5042088;28;20112;-86
2020/12/29 11:09:39;;;;;;;5.72;1.58;;;;;;;23.06;25.66;96617.91;5034022;28;20040;-83
2020/12/29 11:12:05;;;;;;;5.28;2.25;;;;;;;24.35;24.67;96622.03;5037215;28;20032;-83
2020/12/29 11:14:30;;;;;;;6.20;1.73;;;;;;;24.56;23.36;96605.50;5031642;28;20025;-84
2020/12/29 11:16:56;;;;;;;3.13;1.60;;;;;;;23.60;24.92;96603.66;5042504;28;20080;-84
2020/12/29 11:19:21;;;;;;;18.40;3.72;;;;;;;23.71;24.77;96616.78;5017866;28;20091;-85
2020/12/29 11:21:47;;;;;;;3.92;2.40;;;;;;;24.24;24.46;96607.88;5034587;28;20575;-84
2020/12/29 11:24:13;;;;;;;8.70;3.85;;;;;;;24.90;22.99;96620.97;5054132;28;20024;-85
2020/12/29 11:26:38;;;;;;;14.95;5.95;;;;;;;25.04;23.35;96619.97;5038428;28;20045;-85
2020/12/29 11:29:06;;;;;;;10.70;5.03;;;;;;;24.46;24.37;96607.75;5045332;28;20079;-84
2020/12/29 11:31:31;;;;;;;4.88;2.30;;;;;;;24.65;24.30;96615.19;5038433;28;20060;-83
2020/12/29 11:33:57;;;;;;;6.28;3.03;;;;;;;25.55;23.69;96623.84;5017099;28;20060;-84